CZ-0043 weather

Střediskový Central Heliport
Jihlava, Vysočina Region, Czechia

Public forecast

Using degrees Celsius for public forecast. Weather courtesy of forecast.io.

METAR (pilot weather report)

Closest report is Náměšť Air Base, 25.9 nm (48.0 km) ESE. Retrieved 2019/08/18 19:00 UTC (4 minutes ago):

LKNA 181900Z 16008KT CAVOK 26/15 Q1012 NOSIG RMK BLU BLU

TAF (pilot weather forecast)

Closest forecast is Náměšť Air Base, 25.9 nm (48.0 km) ESE. Retrieved 2019/08/18 18:05 UTC (59 minutes ago):

TAF LKNA 181700Z 1818/1918 13005KT CAVOK BECMG 1902/1904 31006KT PROB30 TEMPO 1903/1907 RA BKN040 PROB30 TEMPO 1911/1918 29015KT 7000 SHRA SCT035TCU